sensor_id;sensor_type;location;lat;lon;timestamp;temperature;humidity
816;DHT22;25928;51.062;13.752;2023-05-07T00:00:33;12.30;1.00
816;DHT22;25928;51.062;13.752;2023-05-07T00:02:59;12.20;1.00
816;DHT22;25928;51.062;13.752;2023-05-07T00:05:25;12.00;1.00
816;DHT22;25928;51.062;13.752;2023-05-07T00:07:51;11.90;1.00
816;DHT22;25928;51.062;13.752;2023-05-07T00:10:18;11.90;1.00
816;DHT22;25928;51.062;13.752;2023-05-07T00:12:44;11.90;1.00
816;DHT22;25928;51.062;13.752;2023-05-07T00:15:10;11.80;1.00
816;DHT22;25928;51.062;13.752;2023-05-07T00:17:36;11.80;1.00
816;DHT22;25928;51.062;13.752;2023-05-07T00:20:02;11.80;1.00
816;DHT22;25928;51.062;13.752;2023-05-07T00:22:29;11.80;1.00
816;DHT22;25928;51.062;13.752;2023-05-07T00:24:55;11.80;1.00
816;DHT22;25928;51.062;13.752;2023-05-07T00:27:22;11.70;1.00
816;DHT22;25928;51.062;13.752;2023-05-07T00:29:47;11.70;1.00
816;DHT22;25928;51.062;13.752;2023-05-07T00:32:13;11.70;1.00
816;DHT22;25928;51.062;13.752;2023-05-07T00:34:39;11.80;1.00
816;DHT22;25928;51.062;13.752;2023-05-07T00:37:05;11.90;1.00
816;DHT22;25928;51.062;13.752;2023-05-07T00:39:33;12.00;1.00
816;DHT22;25928;51.062;13.752;2023-05-07T00:41:59;12.00;1.00
816;DHT22;25928;51.062;13.752;2023-05-07T00:44:26;12.00;1.00
816;DHT22;25928;51.062;13.752;2023-05-07T00:46:52;12.00;1.00
816;DHT22;25928;51.062;13.752;2023-05-07T00:49:18;12.00;1.00
816;DHT22;25928;51.062;13.752;2023-05-07T00:51:45;12.00;1.00
816;DHT22;25928;51.062;13.752;2023-05-07T00:54:10;12.00;1.00
816;DHT22;25928;51.062;13.752;2023-05-07T00:56:36;12.20;1.00
816;DHT22;25928;51.062;13.752;2023-05-07T00:59:03;12.10;1.00
816;DHT22;25928;51.062;13.752;2023-05-07T01:01:29;12.10;1.00
816;DHT22;25928;51.062;13.752;2023-05-07T01:03:55;12.20;1.00
816;DHT22;25928;51.062;13.752;2023-05-07T01:06:21;12.20;1.00
816;DHT22;25928;51.062;13.752;2023-05-07T01:08:48;12.20;1.00
816;DHT22;25928;51.062;13.752;2023-05-07T01:11:16;12.20;1.00
816;DHT22;25928;51.062;13.752;2023-05-07T01:13:45;12.30;1.00
816;DHT22;25928;51.062;13.752;2023-05-07T01:16:11;12.30;1.00
816;DHT22;25928;51.062;13.752;2023-05-07T01:18:36;12.20;1.00
816;DHT22;25928;51.062;13.752;2023-05-07T01:21:04;12.20;1.00
816;DHT22;25928;51.062;13.752;2023-05-07T01:23:30;12.30;1.00
816;DHT22;25928;51.062;13.752;2023-05-07T01:25:56;12.20;1.00
816;DHT22;25928;51.062;13.752;2023-05-07T01:28:22;12.10;1.00
816;DHT22;25928;51.062;13.752;2023-05-07T01:30:51;12.10;1.00
816;DHT22;25928;51.062;13.752;2023-05-07T01:33:19;12.10;1.00
816;DHT22;25928;51.062;13.752;2023-05-07T01:35:48;12.20;1.00
816;DHT22;25928;51.062;13.752;2023-05-07T01:38:16;12.30;1.00
816;DHT22;25928;51.062;13.752;2023-05-07T01:40:43;12.20;1.00
816;DHT22;25928;51.062;13.752;2023-05-07T01:43:09;12.30;1.00
816;DHT22;25928;51.062;13.752;2023-05-07T01:45:35;12.30;1.00
816;DHT22;25928;51.062;13.752;2023-05-07T01:48:02;12.30;1.00
816;DHT22;25928;51.062;13.752;2023-05-07T01:50:29;12.30;1.00
816;DHT22;25928;51.062;13.752;2023-05-07T01:52:55;12.30;1.00
816;DHT22;25928;51.062;13.752;2023-05-07T01:55:21;12.30;1.00
816;DHT22;25928;51.062;13.752;2023-05-07T01:57:47;12.20;1.00
816;DHT22;25928;51.062;13.752;2023-05-07T02:00:13;12.20;1.00
816;DHT22;25928;51.062;13.752;2023-05-07T02:02:38;12.10;1.00
816;DHT22;25928;51.062;13.752;2023-05-07T02:05:04;12.20;1.00
816;DHT22;25928;51.062;13.752;2023-05-07T02:07:30;12.20;1.00
816;DHT22;25928;51.062;13.752;2023-05-07T02:09:56;12.30;1.00
816;DHT22;25928;51.062;13.752;2023-05-07T02:12:22;12.30;1.00
816;DHT22;25928;51.062;13.752;2023-05-07T02:14:48;12.30;1.00
816;DHT22;25928;51.062;13.752;2023-05-07T02:17:14;12.30;1.00
816;DHT22;25928;51.062;13.752;2023-05-07T02:19:40;12.30;1.00
816;DHT22;25928;51.062;13.752;2023-05-07T02:22:05;12.30;1.00
816;DHT22;25928;51.062;13.752;2023-05-07T02:24:31;12.30;1.00
816;DHT22;25928;51.062;13.752;2023-05-07T02:26:56;12.30;1.00
816;DHT22;25928;51.062;13.752;2023-05-07T02:29:22;12.30;1.00
816;DHT22;25928;51.062;13.752;2023-05-07T02:31:47;12.20;1.00
816;DHT22;25928;51.062;13.752;2023-05-07T02:34:18;12.20;1.00
816;DHT22;25928;51.062;13.752;2023-05-07T02:36:44;12.20;1.00
816;DHT22;25928;51.062;13.752;2023-05-07T02:39:11;12.20;1.00
816;DHT22;25928;51.062;13.752;2023-05-07T02:41:37;12.20;1.00
816;DHT22;25928;51.062;13.752;2023-05-07T02:44:02;12.10;1.00
816;DHT22;25928;51.062;13.752;2023-05-07T02:46:28;12.10;1.00
816;DHT22;25928;51.062;13.752;2023-05-07T02:48:54;12.00;1.00
816;DHT22;25928;51.062;13.752;2023-05-07T02:51:21;12.00;1.00
816;DHT22;25928;51.062;13.752;2023-05-07T02:53:47;12.00;1.00
816;DHT22;25928;51.062;13.752;2023-05-07T02:56:12;12.00;1.00
816;DHT22;25928;51.062;13.752;2023-05-07T02:58:38;11.80;1.00
816;DHT22;25928;51.062;13.752;2023-05-07T03:01:10;11.70;1.00
816;DHT22;25928;51.062;13.752;2023-05-07T03:03:35;11.70;1.00
816;DHT22;25928;51.062;13.752;2023-05-07T03:06:02;11.70;1.00
816;DHT22;25928;51.062;13.752;2023-05-07T03:08:27;11.70;1.00
816;DHT22;25928;51.062;13.752;2023-05-07T03:10:53;11.70;1.00
816;DHT22;25928;51.062;13.752;2023-05-07T03:13:19;11.60;1.00
816;DHT22;25928;51.062;13.752;2023-05-07T03:15:44;11.50;1.00
816;DHT22;25928;51.062;13.752;2023-05-07T03:18:10;11.50;1.00
816;DHT22;25928;51.062;13.752;2023-05-07T03:20:36;11.50;1.00
816;DHT22;25928;51.062;13.752;2023-05-07T03:23:02;11.60;1.00
816;DHT22;25928;51.062;13.752;2023-05-07T03:25:28;11.60;1.00
816;DHT22;25928;51.062;13.752;2023-05-07T03:27:55;11.70;1.00
816;DHT22;25928;51.062;13.752;2023-05-07T03:30:21;11.80;1.00
816;DHT22;25928;51.062;13.752;2023-05-07T03:32:47;11.70;1.00
816;DHT22;25928;51.062;13.752;2023-05-07T03:35:12;11.70;1.00
816;DHT22;25928;51.062;13.752;2023-05-07T03:37:38;11.70;1.00
816;DHT22;25928;51.062;13.752;2023-05-07T03:40:05;11.80;1.00
816;DHT22;25928;51.062;13.752;2023-05-07T03:42:31;11.80;1.00
816;DHT22;25928;51.062;13.752;2023-05-07T03:44:57;11.90;1.00
816;DHT22;25928;51.062;13.752;2023-05-07T03:47:22;11.90;1.00
816;DHT22;25928;51.062;13.752;2023-05-07T03:49:48;12.00;1.00
816;DHT22;25928;51.062;13.752;2023-05-07T03:52:15;12.10;1.00
816;DHT22;25928;51.062;13.752;2023-05-07T03:54:41;12.20;1.00
816;DHT22;25928;51.062;13.752;2023-05-07T03:57:07;12.20;1.00
816;DHT22;25928;51.062;13.752;2023-05-07T03:59:32;12.20;1.00
816;DHT22;25928;51.062;13.752;2023-05-07T04:01:58;12.20;1.00
816;DHT22;25928;51.062;13.752;2023-05-07T04:04:23;12.20;1.00
816;DHT22;25928;51.062;13.752;2023-05-07T04:06:49;12.20;1.00
816;DHT22;25928;51.062;13.752;2023-05-07T04:09:15;12.20;1.00
816;DHT22;25928;51.062;13.752;2023-05-07T04:11:40;12.30;1.00
816;DHT22;25928;51.062;13.752;2023-05-07T04:14:06;12.30;1.00
816;DHT22;25928;51.062;13.752;2023-05-07T04:16:31;12.40;1.00
816;DHT22;25928;51.062;13.752;2023-05-07T04:18:57;12.40;1.00
816;DHT22;25928;51.062;13.752;2023-05-07T04:21:23;12.50;1.00
816;DHT22;25928;51.062;13.752;2023-05-07T04:23:49;12.20;1.00
816;DHT22;25928;51.062;13.752;2023-05-07T04:26:15;12.00;1.00
816;DHT22;25928;51.062;13.752;2023-05-07T04:28:41;12.10;1.00
816;DHT22;25928;51.062;13.752;2023-05-07T04:31:07;12.10;1.00
816;DHT22;25928;51.062;13.752;2023-05-07T04:33:33;12.10;1.00
816;DHT22;25928;51.062;13.752;2023-05-07T04:36:03;12.10;1.00
816;DHT22;25928;51.062;13.752;2023-05-07T04:38:30;12.20;1.00
816;DHT22;25928;51.062;13.752;2023-05-07T04:40:56;12.30;1.00
816;DHT22;25928;51.062;13.752;2023-05-07T04:43:22;12.20;1.00
816;DHT22;25928;51.062;13.752;2023-05-07T04:45:50;12.40;1.00
816;DHT22;25928;51.062;13.752;2023-05-07T04:48:15;12.40;1.00
816;DHT22;25928;51.062;13.752;2023-05-07T04:50:41;12.50;1.00
816;DHT22;25928;51.062;13.752;2023-05-07T04:53:07;12.40;1.00
816;DHT22;25928;51.062;13.752;2023-05-07T04:55:32;12.50;1.00
816;DHT22;25928;51.062;13.752;2023-05-07T04:57:58;12.50;1.00
816;DHT22;25928;51.062;13.752;2023-05-07T05:00:25;12.60;1.00
816;DHT22;25928;51.062;13.752;2023-05-07T05:02:51;12.70;1.00
816;DHT22;25928;51.062;13.752;2023-05-07T05:05:17;12.70;1.00
816;DHT22;25928;51.062;13.752;2023-05-07T05:07:42;12.60;1.00
816;DHT22;25928;51.062;13.752;2023-05-07T05:10:08;12.70;1.00
816;DHT22;25928;51.062;13.752;2023-05-07T05:12:34;12.70;1.00
816;DHT22;25928;51.062;13.752;2023-05-07T05:14:59;12.70;1.00
816;DHT22;25928;51.062;13.752;2023-05-07T05:17:25;12.80;1.00
816;DHT22;25928;51.062;13.752;2023-05-07T05:19:50;12.80;1.00
816;DHT22;25928;51.062;13.752;2023-05-07T05:22:16;12.70;1.00
816;DHT22;25928;51.062;13.752;2023-05-07T05:24:42;12.60;1.00
816;DHT22;25928;51.062;13.752;2023-05-07T05:27:07;12.60;1.00
816;DHT22;25928;51.062;13.752;2023-05-07T05:29:33;12.60;1.00
816;DHT22;25928;51.062;13.752;2023-05-07T05:31:59;12.60;1.00
816;DHT22;25928;51.062;13.752;2023-05-07T05:34:24;12.40;1.00
816;DHT22;25928;51.062;13.752;2023-05-07T05:36:50;12.30;1.00
816;DHT22;25928;51.062;13.752;2023-05-07T05:39:15;12.30;1.00
816;DHT22;25928;51.062;13.752;2023-05-07T05:41:41;12.30;1.00
816;DHT22;25928;51.062;13.752;2023-05-07T05:44:07;12.20;1.00
816;DHT22;25928;51.062;13.752;2023-05-07T05:46:32;12.30;1.00
816;DHT22;25928;51.062;13.752;2023-05-07T05:48:58;12.00;1.00
816;DHT22;25928;51.062;13.752;2023-05-07T05:51:23;11.90;1.00
816;DHT22;25928;51.062;13.752;2023-05-07T05:53:49;11.90;1.00
816;DHT22;25928;51.062;13.752;2023-05-07T05:56:16;12.00;1.00
816;DHT22;25928;51.062;13.752;2023-05-07T05:58:41;12.10;1.00
816;DHT22;25928;51.062;13.752;2023-05-07T06:01:07;12.00;1.00
816;DHT22;25928;51.062;13.752;2023-05-07T06:03:33;12.10;1.00
816;DHT22;25928;51.062;13.752;2023-05-07T06:05:58;12.20;1.00
816;DHT22;25928;51.062;13.752;2023-05-07T06:08:25;12.30;1.00
816;DHT22;25928;51.062;13.752;2023-05-07T06:10:51;12.40;1.00
816;DHT22;25928;51.062;13.752;2023-05-07T06:13:17;12.40;1.00
816;DHT22;25928;51.062;13.752;2023-05-07T06:15:42;12.50;1.00
816;DHT22;25928;51.062;13.752;2023-05-07T06:18:08;12.70;1.00
816;DHT22;25928;51.062;13.752;2023-05-07T06:20:34;12.70;1.00
816;DHT22;25928;51.062;13.752;2023-05-07T06:22:59;12.80;1.00
816;DHT22;25928;51.062;13.752;2023-05-07T06:25:25;12.90;1.00
816;DHT22;25928;51.062;13.752;2023-05-07T06:27:50;12.90;1.00
816;DHT22;25928;51.062;13.752;2023-05-07T06:30:16;12.80;1.00
816;DHT22;25928;51.062;13.752;2023-05-07T06:32:42;12.70;1.00
816;DHT22;25928;51.062;13.752;2023-05-07T06:35:08;12.50;1.00
816;DHT22;25928;51.062;13.752;2023-05-07T06:37:33;12.40;1.00
816;DHT22;25928;51.062;13.752;2023-05-07T06:39:59;12.40;1.00
816;DHT22;25928;51.062;13.752;2023-05-07T06:42:24;12.40;1.00
816;DHT22;25928;51.062;13.752;2023-05-07T06:44:50;12.40;1.00
816;DHT22;25928;51.062;13.752;2023-05-07T06:47:16;12.20;1.00
816;DHT22;25928;51.062;13.752;2023-05-07T06:49:41;12.20;1.00
816;DHT22;25928;51.062;13.752;2023-05-07T06:52:07;12.20;1.00
816;DHT22;25928;51.062;13.752;2023-05-07T06:54:33;12.40;1.00
816;DHT22;25928;51.062;13.752;2023-05-07T06:56:58;12.50;1.00
816;DHT22;25928;51.062;13.752;2023-05-07T06:59:24;12.70;1.00
816;DHT22;25928;51.062;13.752;2023-05-07T07:01:50;12.70;1.00
816;DHT22;25928;51.062;13.752;2023-05-07T07:04:15;12.60;1.00
816;DHT22;25928;51.062;13.752;2023-05-07T07:06:42;12.40;1.00
816;DHT22;25928;51.062;13.752;2023-05-07T07:09:08;12.30;1.00
816;DHT22;25928;51.062;13.752;2023-05-07T07:11:33;12.30;1.00
816;DHT22;25928;51.062;13.752;2023-05-07T07:13:59;12.30;1.00
816;DHT22;25928;51.062;13.752;2023-05-07T07:16:24;12.50;1.00
816;DHT22;25928;51.062;13.752;2023-05-07T07:18:51;12.60;1.00
816;DHT22;25928;51.062;13.752;2023-05-07T07:21:16;12.60;1.00
816;DHT22;25928;51.062;13.752;2023-05-07T07:23:42;12.70;1.00
816;DHT22;25928;51.062;13.752;2023-05-07T07:26:07;12.70;1.00
816;DHT22;25928;51.062;13.752;2023-05-07T07:28:33;12.70;1.00
816;DHT22;25928;51.062;13.752;2023-05-07T07:30:59;12.90;1.00
816;DHT22;25928;51.062;13.752;2023-05-07T07:33:24;13.00;1.00
816;DHT22;25928;51.062;13.752;2023-05-07T07:35:50;13.00;1.00
816;DHT22;25928;51.062;13.752;2023-05-07T07:38:15;13.30;1.00
816;DHT22;25928;51.062;13.752;2023-05-07T07:40:41;13.40;1.00
816;DHT22;25928;51.062;13.752;2023-05-07T07:43:07;13.50;1.00
816;DHT22;25928;51.062;13.752;2023-05-07T07:45:32;13.70;1.00
816;DHT22;25928;51.062;13.752;2023-05-07T07:47:58;13.60;1.00
816;DHT22;25928;51.062;13.752;2023-05-07T07:50:23;13.70;1.00
816;DHT22;25928;51.062;13.752;2023-05-07T07:52:49;13.60;1.00
816;DHT22;25928;51.062;13.752;2023-05-07T07:55:15;13.60;1.00
816;DHT22;25928;51.062;13.752;2023-05-07T07:57:46;13.50;1.00
816;DHT22;25928;51.062;13.752;2023-05-07T08:00:12;13.50;1.00
816;DHT22;25928;51.062;13.752;2023-05-07T08:02:38;13.20;1.00
816;DHT22;25928;51.062;13.752;2023-05-07T08:05:03;12.90;1.00
816;DHT22;25928;51.062;13.752;2023-05-07T08:07:29;12.70;1.00
816;DHT22;25928;51.062;13.752;2023-05-07T08:09:55;12.80;1.00
816;DHT22;25928;51.062;13.752;2023-05-07T08:12:20;12.80;1.00
816;DHT22;25928;51.062;13.752;2023-05-07T08:14:46;12.90;1.00
816;DHT22;25928;51.062;13.752;2023-05-07T08:17:12;13.00;1.00
816;DHT22;25928;51.062;13.752;2023-05-07T08:19:38;13.20;1.00
816;DHT22;25928;51.062;13.752;2023-05-07T08:22:04;13.00;1.00
816;DHT22;25928;51.062;13.752;2023-05-07T08:24:31;12.90;1.00
816;DHT22;25928;51.062;13.752;2023-05-07T08:26:56;13.00;1.00
816;DHT22;25928;51.062;13.752;2023-05-07T08:29:22;13.20;1.00
816;DHT22;25928;51.062;13.752;2023-05-07T08:31:47;13.40;1.00
816;DHT22;25928;51.062;13.752;2023-05-07T08:34:13;13.60;1.00
816;DHT22;25928;51.062;13.752;2023-05-07T08:36:39;13.70;1.00
816;DHT22;25928;51.062;13.752;2023-05-07T08:39:07;13.70;1.00
816;DHT22;25928;51.062;13.752;2023-05-07T08:41:32;13.50;1.00
816;DHT22;25928;51.062;13.752;2023-05-07T08:43:59;13.60;1.00
816;DHT22;25928;51.062;13.752;2023-05-07T08:46:31;13.80;1.00
816;DHT22;25928;51.062;13.752;2023-05-07T08:48:57;13.90;1.00
816;DHT22;25928;51.062;13.752;2023-05-07T08:51:23;14.00;1.00
816;DHT22;25928;51.062;13.752;2023-05-07T08:53:49;14.00;1.00
816;DHT22;25928;51.062;13.752;2023-05-07T08:56:16;13.70;1.00
816;DHT22;25928;51.062;13.752;2023-05-07T08:58:43;13.30;1.00
816;DHT22;25928;51.062;13.752;2023-05-07T09:01:10;13.30;1.00
816;DHT22;25928;51.062;13.752;2023-05-07T09:03:38;13.20;1.00
816;DHT22;25928;51.062;13.752;2023-05-07T09:06:04;13.20;1.00
816;DHT22;25928;51.062;13.752;2023-05-07T09:08:32;13.20;1.00
816;DHT22;25928;51.062;13.752;2023-05-07T09:10:58;13.20;1.00
816;DHT22;25928;51.062;13.752;2023-05-07T09:13:24;13.10;1.00
816;DHT22;25928;51.062;13.752;2023-05-07T09:15:50;13.30;1.00
816;DHT22;25928;51.062;13.752;2023-05-07T09:18:16;13.50;1.00
816;DHT22;25928;51.062;13.752;2023-05-07T09:20:41;13.80;1.00
816;DHT22;25928;51.062;13.752;2023-05-07T09:23:08;14.00;1.00
816;DHT22;25928;51.062;13.752;2023-05-07T09:25:35;14.20;1.00
816;DHT22;25928;51.062;13.752;2023-05-07T09:28:02;14.00;1.00
816;DHT22;25928;51.062;13.752;2023-05-07T09:30:32;14.00;1.00
816;DHT22;25928;51.062;13.752;2023-05-07T09:32:59;14.00;1.00
816;DHT22;25928;51.062;13.752;2023-05-07T09:35:26;14.10;1.00
816;DHT22;25928;51.062;13.752;2023-05-07T09:37:59;14.20;1.00
816;DHT22;25928;51.062;13.752;2023-05-07T09:40:27;14.10;1.00
816;DHT22;25928;51.062;13.752;2023-05-07T09:42:53;14.00;1.00
816;DHT22;25928;51.062;13.752;2023-05-07T09:45:24;14.10;1.00
816;DHT22;25928;51.062;13.752;2023-05-07T09:47:55;14.20;1.00
816;DHT22;25928;51.062;13.752;2023-05-07T09:50:26;14.10;1.00
816;DHT22;25928;51.062;13.752;2023-05-07T09:52:54;14.30;1.00
816;DHT22;25928;51.062;13.752;2023-05-07T09:55:20;14.50;1.00
816;DHT22;25928;51.062;13.752;2023-05-07T09:57:49;14.50;1.00
816;DHT22;25928;51.062;13.752;2023-05-07T10:00:18;14.50;1.00
816;DHT22;25928;51.062;13.752;2023-05-07T10:02:46;14.10;1.00
816;DHT22;25928;51.062;13.752;2023-05-07T10:05:14;13.60;1.00
816;DHT22;25928;51.062;13.752;2023-05-07T10:07:40;13.30;1.00
816;DHT22;25928;51.062;13.752;2023-05-07T10:10:07;13.30;1.00
816;DHT22;25928;51.062;13.752;2023-05-07T10:12:33;13.50;1.00
816;DHT22;25928;51.062;13.752;2023-05-07T10:15:08;13.80;1.00
816;DHT22;25928;51.062;13.752;2023-05-07T10:17:37;14.20;1.00
816;DHT22;25928;51.062;13.752;2023-05-07T10:20:03;14.60;1.00
816;DHT22;25928;51.062;13.752;2023-05-07T10:22:41;14.80;1.00
816;DHT22;25928;51.062;13.752;2023-05-07T10:25:25;14.80;1.00
816;DHT22;25928;51.062;13.752;2023-05-07T10:27:54;14.60;1.00
816;DHT22;25928;51.062;13.752;2023-05-07T10:33:10;14.50;1.00
816;DHT22;25928;51.062;13.752;2023-05-07T10:35:45;14.20;1.00
816;DHT22;25928;51.062;13.752;2023-05-07T10:38:12;14.20;1.00
816;DHT22;25928;51.062;13.752;2023-05-07T10:40:37;14.10;1.00
816;DHT22;25928;51.062;13.752;2023-05-07T10:43:04;14.10;1.00
816;DHT22;25928;51.062;13.752;2023-05-07T10:45:31;14.10;1.00
816;DHT22;25928;51.062;13.752;2023-05-07T10:50:39;14.10;1.00
816;DHT22;25928;51.062;13.752;2023-05-07T10:58:33;15.10;1.00
816;DHT22;25928;51.062;13.752;2023-05-07T11:01:02;15.50;99.90
816;DHT22;25928;51.062;13.752;2023-05-07T11:03:28;15.60;99.90
816;DHT22;25928;51.062;13.752;2023-05-07T11:06:12;15.80;99.90
816;DHT22;25928;51.062;13.752;2023-05-07T11:11:19;16.00;99.90
816;DHT22;25928;51.062;13.752;2023-05-07T11:13:48;16.10;99.90
816;DHT22;25928;51.062;13.752;2023-05-07T11:16:21;16.20;99.90
816;DHT22;25928;51.062;13.752;2023-05-07T11:18:54;16.10;99.90
816;DHT22;25928;51.062;13.752;2023-05-07T11:21:39;15.90;99.90
816;DHT22;25928;51.062;13.752;2023-05-07T11:24:09;15.80;99.90
816;DHT22;25928;51.062;13.752;2023-05-07T11:26:47;15.90;99.90
816;DHT22;25928;51.062;13.752;2023-05-07T11:29:18;15.90;99.90
816;DHT22;25928;51.062;13.752;2023-05-07T11:31:44;16.00;99.90
816;DHT22;25928;51.062;13.752;2023-05-07T11:34:14;16.00;99.90
816;DHT22;25928;51.062;13.752;2023-05-07T11:36:42;15.70;99.90
816;DHT22;25928;51.062;13.752;2023-05-07T11:39:30;15.70;99.90
816;DHT22;25928;51.062;13.752;2023-05-07T11:41:56;15.70;99.90
816;DHT22;25928;51.062;13.752;2023-05-07T11:44:22;15.90;99.90
816;DHT22;25928;51.062;13.752;2023-05-07T11:46:48;16.10;99.90
816;DHT22;25928;51.062;13.752;2023-05-07T11:49:14;16.00;99.90
816;DHT22;25928;51.062;13.752;2023-05-07T11:51:40;15.90;99.90
816;DHT22;25928;51.062;13.752;2023-05-07T11:54:08;16.10;99.90
816;DHT22;25928;51.062;13.752;2023-05-07T11:56:34;16.10;99.90
816;DHT22;25928;51.062;13.752;2023-05-07T11:59:00;16.10;99.90
816;DHT22;25928;51.062;13.752;2023-05-07T12:01:26;16.30;99.90
816;DHT22;25928;51.062;13.752;2023-05-07T12:03:52;16.40;99.90
816;DHT22;25928;51.062;13.752;2023-05-07T12:06:18;16.50;99.90
816;DHT22;25928;51.062;13.752;2023-05-07T12:08:44;16.80;99.90
816;DHT22;25928;51.062;13.752;2023-05-07T12:11:22;16.90;99.90
816;DHT22;25928;51.062;13.752;2023-05-07T12:13:47;16.40;99.90
816;DHT22;25928;51.062;13.752;2023-05-07T12:16:14;16.10;99.90
816;DHT22;25928;51.062;13.752;2023-05-07T12:18:40;16.10;99.90
816;DHT22;25928;51.062;13.752;2023-05-07T12:21:06;16.40;99.90
816;DHT22;25928;51.062;13.752;2023-05-07T12:23:36;16.60;99.90
816;DHT22;25928;51.062;13.752;2023-05-07T12:26:02;16.90;99.90
816;DHT22;25928;51.062;13.752;2023-05-07T12:28:28;17.00;99.90
816;DHT22;25928;51.062;13.752;2023-05-07T12:30:54;16.60;99.90
816;DHT22;25928;51.062;13.752;2023-05-07T12:33:25;16.60;99.90
816;DHT22;25928;51.062;13.752;2023-05-07T12:35:53;16.60;99.90
816;DHT22;25928;51.062;13.752;2023-05-07T12:38:19;16.80;99.90
816;DHT22;25928;51.062;13.752;2023-05-07T12:40:50;16.80;99.90
816;DHT22;25928;51.062;13.752;2023-05-07T12:43:27;16.60;99.90
816;DHT22;25928;51.062;13.752;2023-05-07T12:45:55;16.50;99.90
816;DHT22;25928;51.062;13.752;2023-05-07T12:48:22;16.30;99.90
816;DHT22;25928;51.062;13.752;2023-05-07T12:50:51;16.40;99.90
816;DHT22;25928;51.062;13.752;2023-05-07T12:53:21;16.50;99.90
816;DHT22;25928;51.062;13.752;2023-05-07T12:55:48;16.90;99.90
816;DHT22;25928;51.062;13.752;2023-05-07T12:58:24;17.40;99.90
816;DHT22;25928;51.062;13.752;2023-05-07T13:00:51;18.00;99.90
816;DHT22;25928;51.062;13.752;2023-05-07T13:03:26;18.10;99.90
816;DHT22;25928;51.062;13.752;2023-05-07T13:05:52;18.40;99.90
816;DHT22;25928;51.062;13.752;2023-05-07T13:08:39;18.60;99.90
816;DHT22;25928;51.062;13.752;2023-05-07T13:11:13;18.60;99.90
816;DHT22;25928;51.062;13.752;2023-05-07T13:13:40;18.50;99.90
816;DHT22;25928;51.062;13.752;2023-05-07T13:16:08;18.20;99.90
816;DHT22;25928;51.062;13.752;2023-05-07T13:18:34;17.50;99.90
816;DHT22;25928;51.062;13.752;2023-05-07T13:21:00;17.50;99.90
816;DHT22;25928;51.062;13.752;2023-05-07T13:23:27;17.60;99.90
816;DHT22;25928;51.062;13.752;2023-05-07T13:25:53;17.80;99.90
816;DHT22;25928;51.062;13.752;2023-05-07T13:28:26;17.80;99.90
816;DHT22;25928;51.062;13.752;2023-05-07T13:30:52;17.80;99.90
816;DHT22;25928;51.062;13.752;2023-05-07T13:33:18;17.60;99.90
816;DHT22;25928;51.062;13.752;2023-05-07T13:35:44;17.60;99.90
816;DHT22;25928;51.062;13.752;2023-05-07T13:38:10;17.30;99.90
816;DHT22;25928;51.062;13.752;2023-05-07T13:40:35;16.80;99.90
816;DHT22;25928;51.062;13.752;2023-05-07T13:43:01;16.40;99.90
816;DHT22;25928;51.062;13.752;2023-05-07T13:45:28;16.20;99.90
816;DHT22;25928;51.062;13.752;2023-05-07T13:47:55;16.10;99.90
816;DHT22;25928;51.062;13.752;2023-05-07T13:50:21;16.20;99.90
816;DHT22;25928;51.062;13.752;2023-05-07T13:52:46;16.50;99.90
816;DHT22;25928;51.062;13.752;2023-05-07T13:55:19;16.70;99.90
816;DHT22;25928;51.062;13.752;2023-05-07T13:57:46;16.50;99.90
816;DHT22;25928;51.062;13.752;2023-05-07T14:00:13;16.60;99.90
816;DHT22;25928;51.062;13.752;2023-05-07T14:02:39;16.60;99.90
816;DHT22;25928;51.062;13.752;2023-05-07T14:05:06;16.80;99.90
816;DHT22;25928;51.062;13.752;2023-05-07T14:07:31;17.00;99.90
816;DHT22;25928;51.062;13.752;2023-05-07T14:09:57;17.00;99.90
816;DHT22;25928;51.062;13.752;2023-05-07T14:12:23;16.60;99.90
816;DHT22;25928;51.062;13.752;2023-05-07T14:14:49;16.30;99.90
816;DHT22;25928;51.062;13.752;2023-05-07T14:17:16;16.10;99.90
816;DHT22;25928;51.062;13.752;2023-05-07T14:19:43;16.20;99.90
816;DHT22;25928;51.062;13.752;2023-05-07T14:22:09;16.40;99.90
816;DHT22;25928;51.062;13.752;2023-05-07T14:24:35;16.50;99.90
816;DHT22;25928;51.062;13.752;2023-05-07T14:27:01;16.70;99.90
816;DHT22;25928;51.062;13.752;2023-05-07T14:29:27;16.80;99.90
816;DHT22;25928;51.062;13.752;2023-05-07T14:31:53;16.70;99.90
816;DHT22;25928;51.062;13.752;2023-05-07T14:34:18;17.00;99.90
816;DHT22;25928;51.062;13.752;2023-05-07T14:36:44;17.60;99.90
816;DHT22;25928;51.062;13.752;2023-05-07T14:39:10;17.40;99.90
816;DHT22;25928;51.062;13.752;2023-05-07T14:41:35;17.30;99.90
816;DHT22;25928;51.062;13.752;2023-05-07T14:44:01;17.10;99.90
816;DHT22;25928;51.062;13.752;2023-05-07T14:46:29;17.00;99.90
816;DHT22;25928;51.062;13.752;2023-05-07T14:48:56;17.10;99.90
816;DHT22;25928;51.062;13.752;2023-05-07T14:51:22;17.10;99.90
816;DHT22;25928;51.062;13.752;2023-05-07T14:53:49;16.90;99.90
816;DHT22;25928;51.062;13.752;2023-05-07T14:56:15;16.70;99.90
816;DHT22;25928;51.062;13.752;2023-05-07T14:58:42;16.40;99.90
816;DHT22;25928;51.062;13.752;2023-05-07T15:01:08;16.10;99.90
816;DHT22;25928;51.062;13.752;2023-05-07T15:03:34;15.90;99.90
816;DHT22;25928;51.062;13.752;2023-05-07T15:06:00;15.80;99.90
816;DHT22;25928;51.062;13.752;2023-05-07T15:08:26;15.70;99.90
816;DHT22;25928;51.062;13.752;2023-05-07T15:10:51;15.90;99.90
816;DHT22;25928;51.062;13.752;2023-05-07T15:13:17;15.90;99.90
816;DHT22;25928;51.062;13.752;2023-05-07T15:15:44;15.70;99.90
816;DHT22;25928;51.062;13.752;2023-05-07T15:18:10;15.70;99.90
816;DHT22;25928;51.062;13.752;2023-05-07T15:20:36;15.70;99.90
816;DHT22;25928;51.062;13.752;2023-05-07T15:23:02;15.70;99.90
816;DHT22;25928;51.062;13.752;2023-05-07T15:25:30;15.70;99.90
816;DHT22;25928;51.062;13.752;2023-05-07T15:27:57;15.90;99.90
816;DHT22;25928;51.062;13.752;2023-05-07T15:30:23;16.00;99.90
816;DHT22;25928;51.062;13.752;2023-05-07T15:32:49;16.30;99.90
816;DHT22;25928;51.062;13.752;2023-05-07T15:35:14;16.40;99.90
816;DHT22;25928;51.062;13.752;2023-05-07T15:37:40;16.30;99.90
816;DHT22;25928;51.062;13.752;2023-05-07T15:40:06;15.80;99.90
816;DHT22;25928;51.062;13.752;2023-05-07T15:42:33;15.90;99.90
816;DHT22;25928;51.062;13.752;2023-05-07T15:44:59;16.00;99.90
816;DHT22;25928;51.062;13.752;2023-05-07T15:47:26;16.20;99.90
816;DHT22;25928;51.062;13.752;2023-05-07T15:49:52;16.40;99.90
816;DHT22;25928;51.062;13.752;2023-05-07T15:52:18;16.40;99.90
816;DHT22;25928;51.062;13.752;2023-05-07T15:54:44;16.30;99.90
816;DHT22;25928;51.062;13.752;2023-05-07T15:57:09;16.10;99.90
816;DHT22;25928;51.062;13.752;2023-05-07T15:59:36;15.70;99.90
816;DHT22;25928;51.062;13.752;2023-05-07T16:02:02;15.50;99.90
816;DHT22;25928;51.062;13.752;2023-05-07T16:04:28;15.30;99.90
816;DHT22;25928;51.062;13.752;2023-05-07T16:06:53;15.30;99.90